sensor_id;sensor_type;location;lat;lon;timestamp;pressure;altitude;pressure_sealevel;temperature;humidity
60874;BME280;46715;40.642;-7.920;2023-06-22T00:00:16;96433.41;;;14.75;100.00
60874;BME280;46715;40.642;-7.920;2023-06-22T00:02:17;96442.38;;;14.74;100.00
60874;BME280;46715;40.642;-7.920;2023-06-22T00:04:18;96433.22;;;14.72;100.00
60874;BME280;46715;40.642;-7.920;2023-06-22T00:06:19;96435.84;;;14.72;100.00
60874;BME280;46715;40.642;-7.920;2023-06-22T00:08:20;96442.63;;;14.73;100.00
60874;BME280;46715;40.642;-7.920;2023-06-22T00:10:20;96444.47;;;14.72;100.00
60874;BME280;46715;40.642;-7.920;2023-06-22T00:12:21;96438.47;;;14.72;100.00
60874;BME280;46715;40.642;-7.920;2023-06-22T00:14:22;96440.00;;;14.73;100.00
60874;BME280;46715;40.642;-7.920;2023-06-22T00:16:22;96429.91;;;14.66;100.00
60874;BME280;46715;40.642;-7.920;2023-06-22T00:18:23;96429.69;;;14.62;100.00
60874;BME280;46715;40.642;-7.920;2023-06-22T00:20:28;96442.31;;;14.60;100.00
60874;BME280;46715;40.642;-7.920;2023-06-22T00:22:30;96433.91;;;14.58;100.00
60874;BME280;46715;40.642;-7.920;2023-06-22T00:24:31;96438.97;;;14.55;100.00
60874;BME280;46715;40.642;-7.920;2023-06-22T00:26:32;96441.41;;;14.51;100.00
60874;BME280;46715;40.642;-7.920;2023-06-22T00:28:34;96439.81;;;14.50;100.00
60874;BME280;46715;40.642;-7.920;2023-06-22T00:30:36;96447.69;;;14.50;100.00
60874;BME280;46715;40.642;-7.920;2023-06-22T00:32:36;96440.13;;;14.48;100.00
60874;BME280;46715;40.642;-7.920;2023-06-22T00:34:38;96429.91;;;14.47;100.00
60874;BME280;46715;40.642;-7.920;2023-06-22T00:36:38;96431.47;;;14.48;100.00
60874;BME280;46715;40.642;-7.920;2023-06-22T00:38:41;96429.41;;;14.45;100.00
60874;BME280;46715;40.642;-7.920;2023-06-22T00:40:43;96434.94;;;14.43;100.00
60874;BME280;46715;40.642;-7.920;2023-06-22T00:42:44;96436.41;;;14.36;100.00
60874;BME280;46715;40.642;-7.920;2023-06-22T00:44:45;96442.69;;;14.35;100.00
60874;BME280;46715;40.642;-7.920;2023-06-22T00:46:46;96443.00;;;14.33;100.00
60874;BME280;46715;40.642;-7.920;2023-06-22T00:48:47;96444.34;;;14.30;100.00
60874;BME280;46715;40.642;-7.920;2023-06-22T00:50:48;96446.72;;;14.27;100.00
60874;BME280;46715;40.642;-7.920;2023-06-22T00:52:53;96453.06;;;14.26;100.00
60874;BME280;46715;40.642;-7.920;2023-06-22T00:54:57;96448.09;;;14.24;100.00
60874;BME280;46715;40.642;-7.920;2023-06-22T00:56:58;96457.81;;;14.24;100.00
60874;BME280;46715;40.642;-7.920;2023-06-22T00:58:59;96449.47;;;14.22;100.00
60874;BME280;46715;40.642;-7.920;2023-06-22T01:01:00;96448.94;;;14.20;100.00
60874;BME280;46715;40.642;-7.920;2023-06-22T01:03:02;96449.22;;;14.18;100.00
60874;BME280;46715;40.642;-7.920;2023-06-22T01:05:03;96450.50;;;14.21;100.00
60874;BME280;46715;40.642;-7.920;2023-06-22T01:09:15;96453.34;;;14.24;100.00
60874;BME280;46715;40.642;-7.920;2023-06-22T01:11:31;96454.81;;;14.30;100.00
60874;BME280;46715;40.642;-7.920;2023-06-22T01:15:53;96449.69;;;14.39;100.00
60874;BME280;46715;40.642;-7.920;2023-06-22T01:17:57;96450.97;;;14.42;100.00
60874;BME280;46715;40.642;-7.920;2023-06-22T01:20:00;96454.41;;;14.42;100.00
60874;BME280;46715;40.642;-7.920;2023-06-22T01:22:06;96450.97;;;14.42;100.00
60874;BME280;46715;40.642;-7.920;2023-06-22T01:24:24;96451.47;;;14.44;100.00
60874;BME280;46715;40.642;-7.920;2023-06-22T01:28:52;96464.31;;;14.45;100.00
60874;BME280;46715;40.642;-7.920;2023-06-22T01:30:54;96465.44;;;14.39;100.00
60874;BME280;46715;40.642;-7.920;2023-06-22T01:33:05;96464.91;;;14.23;100.00
60874;BME280;46715;40.642;-7.920;2023-06-22T01:35:09;96466.03;;;14.17;100.00
60874;BME280;46715;40.642;-7.920;2023-06-22T01:37:12;96465.66;;;14.05;100.00
60874;BME280;46715;40.642;-7.920;2023-06-22T01:39:13;96466.53;;;14.00;100.00
60874;BME280;46715;40.642;-7.920;2023-06-22T01:41:16;96466.34;;;13.96;100.00
60874;BME280;46715;40.642;-7.920;2023-06-22T01:43:21;96474.91;;;14.02;100.00
60874;BME280;46715;40.642;-7.920;2023-06-22T01:45:24;96469.88;;;14.06;100.00
60874;BME280;46715;40.642;-7.920;2023-06-22T01:47:25;96467.81;;;14.03;100.00
60874;BME280;46715;40.642;-7.920;2023-06-22T01:49:26;96469.16;;;14.00;100.00
60874;BME280;46715;40.642;-7.920;2023-06-22T01:51:26;96465.34;;;13.92;100.00
60874;BME280;46715;40.642;-7.920;2023-06-22T01:53:27;96466.47;;;13.86;100.00
60874;BME280;46715;40.642;-7.920;2023-06-22T01:55:28;96469.13;;;13.81;100.00
60874;BME280;46715;40.642;-7.920;2023-06-22T01:57:28;96472.31;;;13.78;100.00
60874;BME280;46715;40.642;-7.920;2023-06-22T01:59:37;96474.94;;;13.78;100.00
60874;BME280;46715;40.642;-7.920;2023-06-22T02:01:50;96468.66;;;13.79;100.00
60874;BME280;46715;40.642;-7.920;2023-06-22T02:04:03;96473.03;;;13.84;100.00
60874;BME280;46715;40.642;-7.920;2023-06-22T02:06:08;96481.06;;;13.92;100.00
60874;BME280;46715;40.642;-7.920;2023-06-22T02:08:15;96476.53;;;13.98;100.00
60874;BME280;46715;40.642;-7.920;2023-06-22T02:10:20;96476.03;;;13.96;100.00
60874;BME280;46715;40.642;-7.920;2023-06-22T02:12:25;96476.38;;;13.89;100.00
60874;BME280;46715;40.642;-7.920;2023-06-22T02:14:28;96470.69;;;13.82;100.00
60874;BME280;46715;40.642;-7.920;2023-06-22T02:16:30;96471.03;;;13.75;100.00
60874;BME280;46715;40.642;-7.920;2023-06-22T02:18:31;96471.63;;;13.72;100.00
60874;BME280;46715;40.642;-7.920;2023-06-22T02:20:32;96477.19;;;13.66;100.00
60874;BME280;46715;40.642;-7.920;2023-06-22T02:22:33;96476.19;;;13.61;100.00
60874;BME280;46715;40.642;-7.920;2023-06-22T02:24:34;96475.09;;;13.68;100.00
60874;BME280;46715;40.642;-7.920;2023-06-22T02:26:35;96472.03;;;13.79;100.00
60874;BME280;46715;40.642;-7.920;2023-06-22T02:28:36;96480.19;;;13.78;100.00
60874;BME280;46715;40.642;-7.920;2023-06-22T02:30:37;96478.72;;;13.72;100.00
60874;BME280;46715;40.642;-7.920;2023-06-22T02:32:38;96478.09;;;13.56;100.00
60874;BME280;46715;40.642;-7.920;2023-06-22T02:34:43;96475.91;;;13.44;100.00
60874;BME280;46715;40.642;-7.920;2023-06-22T02:36:50;96477.72;;;13.43;100.00
60874;BME280;46715;40.642;-7.920;2023-06-22T02:38:51;96476.94;;;13.43;100.00
60874;BME280;46715;40.642;-7.920;2023-06-22T02:40:52;96472.72;;;13.47;100.00
60874;BME280;46715;40.642;-7.920;2023-06-22T02:42:53;96474.75;;;13.50;100.00
60874;BME280;46715;40.642;-7.920;2023-06-22T02:44:54;96466.13;;;13.50;100.00
60874;BME280;46715;40.642;-7.920;2023-06-22T02:46:55;96465.63;;;13.47;100.00
60874;BME280;46715;40.642;-7.920;2023-06-22T02:48:56;96468.75;;;13.50;100.00
60874;BME280;46715;40.642;-7.920;2023-06-22T02:50:56;96473.72;;;13.51;100.00
60874;BME280;46715;40.642;-7.920;2023-06-22T02:52:57;96471.03;;;13.56;100.00
60874;BME280;46715;40.642;-7.920;2023-06-22T02:54:58;96469.94;;;13.57;100.00
60874;BME280;46715;40.642;-7.920;2023-06-22T02:56:59;96473.66;;;13.56;100.00
60874;BME280;46715;40.642;-7.920;2023-06-22T02:59:04;96480.22;;;13.54;100.00
60874;BME280;46715;40.642;-7.920;2023-06-22T03:01:11;96480.50;;;13.52;100.00
60874;BME280;46715;40.642;-7.920;2023-06-22T03:03:15;96479.44;;;13.53;100.00
60874;BME280;46715;40.642;-7.920;2023-06-22T03:05:16;96481.50;;;13.56;100.00
60874;BME280;46715;40.642;-7.920;2023-06-22T03:07:19;96486.38;;;13.63;100.00
60874;BME280;46715;40.642;-7.920;2023-06-22T03:09:21;96481.63;;;13.70;100.00
60874;BME280;46715;40.642;-7.920;2023-06-22T03:11:22;96482.53;;;13.79;100.00
60874;BME280;46715;40.642;-7.920;2023-06-22T03:13:23;96487.72;;;13.85;100.00
60874;BME280;46715;40.642;-7.920;2023-06-22T03:15:25;96483.53;;;14.03;100.00
60874;BME280;46715;40.642;-7.920;2023-06-22T03:17:26;96489.00;;;14.06;100.00
60874;BME280;46715;40.642;-7.920;2023-06-22T03:19:27;96480.22;;;14.16;100.00
60874;BME280;46715;40.642;-7.920;2023-06-22T03:21:30;96487.22;;;14.21;100.00
60874;BME280;46715;40.642;-7.920;2023-06-22T03:23:34;96486.59;;;14.29;100.00
60874;BME280;46715;40.642;-7.920;2023-06-22T03:25:35;96480.19;;;14.35;100.00
60874;BME280;46715;40.642;-7.920;2023-06-22T03:27:37;96477.78;;;14.39;100.00
60874;BME280;46715;40.642;-7.920;2023-06-22T03:29:37;96477.22;;;14.42;100.00
60874;BME280;46715;40.642;-7.920;2023-06-22T03:31:38;96481.97;;;14.40;100.00
60874;BME280;46715;40.642;-7.920;2023-06-22T03:33:40;96484.78;;;14.43;100.00
60874;BME280;46715;40.642;-7.920;2023-06-22T03:35:41;96477.13;;;14.47;100.00
60874;BME280;46715;40.642;-7.920;2023-06-22T03:37:42;96479.66;;;14.38;100.00
60874;BME280;46715;40.642;-7.920;2023-06-22T03:39:43;96483.09;;;14.33;100.00
60874;BME280;46715;40.642;-7.920;2023-06-22T03:41:43;96486.81;;;14.32;100.00
60874;BME280;46715;40.642;-7.920;2023-06-22T03:43:44;96490.19;;;14.33;100.00
60874;BME280;46715;40.642;-7.920;2023-06-22T03:45:45;96487.34;;;14.29;100.00
60874;BME280;46715;40.642;-7.920;2023-06-22T03:47:47;96487.34;;;14.29;100.00
60874;BME280;46715;40.642;-7.920;2023-06-22T03:49:47;96482.69;;;14.26;100.00
60874;BME280;46715;40.642;-7.920;2023-06-22T03:51:48;96489.78;;;14.26;100.00
60874;BME280;46715;40.642;-7.920;2023-06-22T03:53:49;96485.31;;;14.26;100.00
60874;BME280;46715;40.642;-7.920;2023-06-22T03:55:53;96485.88;;;14.23;100.00
60874;BME280;46715;40.642;-7.920;2023-06-22T03:57:54;96482.56;;;14.18;100.00
60874;BME280;46715;40.642;-7.920;2023-06-22T03:59:57;96480.72;;;14.18;100.00
60874;BME280;46715;40.642;-7.920;2023-06-22T04:01:58;96487.22;;;14.21;100.00
60874;BME280;46715;40.642;-7.920;2023-06-22T04:03:59;96492.97;;;14.23;100.00
60874;BME280;46715;40.642;-7.920;2023-06-22T04:05:59;96492.69;;;14.24;100.00
60874;BME280;46715;40.642;-7.920;2023-06-22T04:08:00;96494.03;;;14.22;100.00
60874;BME280;46715;40.642;-7.920;2023-06-22T04:10:01;96496.66;;;14.22;100.00
60874;BME280;46715;40.642;-7.920;2023-06-22T04:12:02;96496.44;;;14.18;100.00
60874;BME280;46715;40.642;-7.920;2023-06-22T04:14:03;96504.59;;;14.17;100.00
60874;BME280;46715;40.642;-7.920;2023-06-22T04:16:03;96498.59;;;14.16;100.00
60874;BME280;46715;40.642;-7.920;2023-06-22T04:18:04;96498.34;;;14.12;100.00
60874;BME280;46715;40.642;-7.920;2023-06-22T04:20:06;96506.44;;;14.16;100.00
60874;BME280;46715;40.642;-7.920;2023-06-22T04:22:07;96509.63;;;14.32;100.00
60874;BME280;46715;40.642;-7.920;2023-06-22T04:24:08;96506.72;;;14.33;100.00
60874;BME280;46715;40.642;-7.920;2023-06-22T04:26:09;96501.75;;;14.32;100.00
60874;BME280;46715;40.642;-7.920;2023-06-22T04:28:10;96504.66;;;14.30;100.00
60874;BME280;46715;40.642;-7.920;2023-06-22T04:30:13;96499.41;;;14.30;100.00
60874;BME280;46715;40.642;-7.920;2023-06-22T04:32:16;96512.31;;;14.27;100.00
60874;BME280;46715;40.642;-7.920;2023-06-22T04:34:17;96511.53;;;14.26;100.00
60874;BME280;46715;40.642;-7.920;2023-06-22T04:36:22;96519.69;;;14.25;100.00
60874;BME280;46715;40.642;-7.920;2023-06-22T04:38:24;96522.03;;;14.26;100.00
60874;BME280;46715;40.642;-7.920;2023-06-22T04:40:25;96522.25;;;14.30;100.00
60874;BME280;46715;40.642;-7.920;2023-06-22T04:42:26;96516.31;;;14.24;100.00
60874;BME280;46715;40.642;-7.920;2023-06-22T04:44:27;96524.72;;;14.21;100.00
60874;BME280;46715;40.642;-7.920;2023-06-22T04:46:28;96512.94;;;14.19;100.00
60874;BME280;46715;40.642;-7.920;2023-06-22T04:48:29;96522.19;;;14.16;100.00
60874;BME280;46715;40.642;-7.920;2023-06-22T04:50:33;96520.38;;;14.11;100.00
60874;BME280;46715;40.642;-7.920;2023-06-22T04:52:34;96527.50;;;14.11;100.00
60874;BME280;46715;40.642;-7.920;2023-06-22T04:54:36;96534.59;;;14.10;100.00
60874;BME280;46715;40.642;-7.920;2023-06-22T04:56:37;96532.72;;;14.11;100.00
60874;BME280;46715;40.642;-7.920;2023-06-22T04:58:41;96533.22;;;14.13;100.00
60874;BME280;46715;40.642;-7.920;2023-06-22T05:00:42;96529.81;;;14.12;100.00
60874;BME280;46715;40.642;-7.920;2023-06-22T05:02:46;96533.50;;;14.11;100.00
60874;BME280;46715;40.642;-7.920;2023-06-22T05:04:47;96546.63;;;14.11;100.00
60874;BME280;46715;40.642;-7.920;2023-06-22T05:06:52;96545.41;;;14.04;100.00
60874;BME280;46715;40.642;-7.920;2023-06-22T05:08:54;96550.44;;;14.00;100.00
60874;BME280;46715;40.642;-7.920;2023-06-22T05:10:57;96549.28;;;13.87;100.00
60874;BME280;46715;40.642;-7.920;2023-06-22T05:12:58;96546.66;;;13.87;100.00
60874;BME280;46715;40.642;-7.920;2023-06-22T05:14:59;96549.06;;;13.84;100.00
60874;BME280;46715;40.642;-7.920;2023-06-22T05:16:59;96552.75;;;13.83;100.00
60874;BME280;46715;40.642;-7.920;2023-06-22T05:19:04;96545.44;;;13.79;100.00
60874;BME280;46715;40.642;-7.920;2023-06-22T05:21:04;96557.75;;;13.79;100.00
60874;BME280;46715;40.642;-7.920;2023-06-22T05:23:05;96557.75;;;13.79;100.00
60874;BME280;46715;40.642;-7.920;2023-06-22T05:25:08;96557.72;;;13.84;100.00
60874;BME280;46715;40.642;-7.920;2023-06-22T05:27:10;96562.38;;;13.87;100.00
60874;BME280;46715;40.642;-7.920;2023-06-22T05:29:11;96568.06;;;13.94;100.00
60874;BME280;46715;40.642;-7.920;2023-06-22T05:31:15;96569.72;;;14.09;100.00
60874;BME280;46715;40.642;-7.920;2023-06-22T05:33:16;96574.91;;;14.14;100.00
60874;BME280;46715;40.642;-7.920;2023-06-22T05:35:17;96571.50;;;14.14;100.00
60874;BME280;46715;40.642;-7.920;2023-06-22T05:37:21;96572.00;;;14.16;100.00
60874;BME280;46715;40.642;-7.920;2023-06-22T05:39:21;96578.16;;;14.25;100.00
60874;BME280;46715;40.642;-7.920;2023-06-22T05:41:22;96577.53;;;14.33;100.00
60874;BME280;46715;40.642;-7.920;2023-06-22T05:43:23;96581.44;;;14.36;100.00
60874;BME280;46715;40.642;-7.920;2023-06-22T05:45:24;96586.63;;;14.41;100.00
60874;BME280;46715;40.642;-7.920;2023-06-22T05:47:25;96586.56;;;14.46;100.00
60874;BME280;46715;40.642;-7.920;2023-06-22T05:49:26;96587.28;;;14.52;100.00
60874;BME280;46715;40.642;-7.920;2023-06-22T05:51:32;96590.19;;;14.51;100.00
60874;BME280;46715;40.642;-7.920;2023-06-22T05:53:34;96584.94;;;14.51;100.00
60874;BME280;46715;40.642;-7.920;2023-06-22T05:55:34;96585.91;;;14.55;100.00
60874;BME280;46715;40.642;-7.920;2023-06-22T05:57:35;96594.00;;;14.58;100.00
60874;BME280;46715;40.642;-7.920;2023-06-22T05:59:36;96593.50;;;14.56;100.00
60874;BME280;46715;40.642;-7.920;2023-06-22T06:01:36;96588.75;;;14.58;100.00
60874;BME280;46715;40.642;-7.920;2023-06-22T06:03:37;96600.41;;;14.52;100.00
60874;BME280;46715;40.642;-7.920;2023-06-22T06:05:41;96591.31;;;14.44;100.00
60874;BME280;46715;40.642;-7.920;2023-06-22T06:07:42;96601.78;;;14.44;100.00
60874;BME280;46715;40.642;-7.920;2023-06-22T06:09:43;96590.88;;;14.56;100.00
60874;BME280;46715;40.642;-7.920;2023-06-22T06:11:44;96591.81;;;14.65;100.00
60874;BME280;46715;40.642;-7.920;2023-06-22T06:13:44;96588.72;;;14.63;100.00
60874;BME280;46715;40.642;-7.920;2023-06-22T06:15:45;96595.56;;;14.59;100.00
60874;BME280;46715;40.642;-7.920;2023-06-22T06:17:51;96594.38;;;14.71;100.00
60874;BME280;46715;40.642;-7.920;2023-06-22T06:19:53;96602.25;;;14.71;100.00
60874;BME280;46715;40.642;-7.920;2023-06-22T06:21:54;96598.69;;;14.80;100.00
60874;BME280;46715;40.642;-7.920;2023-06-22T06:23:54;96597.28;;;14.88;100.00
60874;BME280;46715;40.642;-7.920;2023-06-22T06:25:55;96597.00;;;14.90;100.00
60874;BME280;46715;40.642;-7.920;2023-06-22T06:27:56;96606.63;;;14.94;100.00
60874;BME280;46715;40.642;-7.920;2023-06-22T06:29:57;96608.78;;;14.92;100.00
60874;BME280;46715;40.642;-7.920;2023-06-22T06:31:58;96605.06;;;14.93;100.00
60874;BME280;46715;40.642;-7.920;2023-06-22T06:33:58;96608.91;;;15.01;100.00
60874;BME280;46715;40.642;-7.920;2023-06-22T06:35:59;96611.84;;;15.13;100.00
60874;BME280;46715;40.642;-7.920;2023-06-22T06:38:02;96619.81;;;15.08;100.00
60874;BME280;46715;40.642;-7.920;2023-06-22T06:40:09;96615.84;;;15.11;100.00
60874;BME280;46715;40.642;-7.920;2023-06-22T06:42:11;96625.94;;;15.04;100.00
60874;BME280;46715;40.642;-7.920;2023-06-22T06:44:11;96623.91;;;14.81;100.00
60874;BME280;46715;40.642;-7.920;2023-06-22T06:46:12;96625.53;;;14.77;100.00
60874;BME280;46715;40.642;-7.920;2023-06-22T06:48:12;96619.47;;;14.77;100.00
60874;BME280;46715;40.642;-7.920;2023-06-22T06:50:13;96622.47;;;14.89;100.00
60874;BME280;46715;40.642;-7.920;2023-06-22T06:52:14;96626.34;;;15.11;100.00
60874;BME280;46715;40.642;-7.920;2023-06-22T06:54:15;96625.47;;;15.15;100.00
60874;BME280;46715;40.642;-7.920;2023-06-22T06:56:16;96624.00;;;15.09;100.00
60874;BME280;46715;40.642;-7.920;2023-06-22T06:58:17;96632.19;;;15.08;100.00
60874;BME280;46715;40.642;-7.920;2023-06-22T07:00:18;96634.28;;;15.25;100.00
60874;BME280;46715;40.642;-7.920;2023-06-22T07:02:19;96643.63;;;15.31;100.00
60874;BME280;46715;40.642;-7.920;2023-06-22T07:04:20;96649.31;;;15.38;100.00
60874;BME280;46715;40.642;-7.920;2023-06-22T07:06:21;96644.53;;;15.40;100.00
60874;BME280;46715;40.642;-7.920;2023-06-22T07:08:22;96656.06;;;15.25;100.00
60874;BME280;46715;40.642;-7.920;2023-06-22T07:10:22;96654.28;;;15.21;100.00
60874;BME280;46715;40.642;-7.920;2023-06-22T07:12:23;96653.59;;;15.15;100.00
60874;BME280;46715;40.642;-7.920;2023-06-22T07:14:24;96653.03;;;14.99;100.00
60874;BME280;46715;40.642;-7.920;2023-06-22T07:16:25;96656.28;;;15.10;100.00
60874;BME280;46715;40.642;-7.920;2023-06-22T07:18:28;96658.78;;;15.20;100.00
60874;BME280;46715;40.642;-7.920;2023-06-22T07:20:29;96659.78;;;15.24;100.00
60874;BME280;46715;40.642;-7.920;2023-06-22T07:22:29;96658.78;;;15.20;100.00
60874;BME280;46715;40.642;-7.920;2023-06-22T07:24:30;96660.81;;;15.23;100.00
60874;BME280;46715;40.642;-7.920;2023-06-22T07:26:33;96662.34;;;15.43;100.00
60874;BME280;46715;40.642;-7.920;2023-06-22T07:28:34;96664.41;;;15.46;100.00
60874;BME280;46715;40.642;-7.920;2023-06-22T07:30:38;96666.94;;;15.51;100.00
60874;BME280;46715;40.642;-7.920;2023-06-22T07:32:39;96667.72;;;15.52;100.00
60874;BME280;46715;40.642;-7.920;2023-06-22T07:34:40;96674.19;;;15.74;100.00
60874;BME280;46715;40.642;-7.920;2023-06-22T07:36:41;96674.75;;;15.57;100.00
60874;BME280;46715;40.642;-7.920;2023-06-22T07:38:42;96679.19;;;15.42;100.00
60874;BME280;46715;40.642;-7.920;2023-06-22T07:40:43;96680.03;;;15.38;100.00
60874;BME280;46715;40.642;-7.920;2023-06-22T07:42:44;96683.16;;;15.40;100.00
60874;BME280;46715;40.642;-7.920;2023-06-22T07:44:45;96684.88;;;15.30;100.00
60874;BME280;46715;40.642;-7.920;2023-06-22T07:46:46;96687.72;;;15.34;100.00
60874;BME280;46715;40.642;-7.920;2023-06-22T07:48:46;96681.31;;;15.40;100.00
60874;BME280;46715;40.642;-7.920;2023-06-22T07:50:47;96684.44;;;15.42;100.00
60874;BME280;46715;40.642;-7.920;2023-06-22T07:52:48;96692.59;;;15.41;100.00
60874;BME280;46715;40.642;-7.920;2023-06-22T07:54:49;96688.94;;;15.56;100.00
60874;BME280;46715;40.642;-7.920;2023-06-22T07:56:49;96691.38;;;15.85;100.00
60874;BME280;46715;40.642;-7.920;2023-06-22T07:58:50;96696.66;;;15.99;100.00
60874;BME280;46715;40.642;-7.920;2023-06-22T08:00:51;96691.69;;;15.97;100.00
60874;BME280;46715;40.642;-7.920;2023-06-22T08:02:52;96694.97;;;15.89;100.00
60874;BME280;46715;40.642;-7.920;2023-06-22T08:04:53;96689.56;;;16.13;100.00
60874;BME280;46715;40.642;-7.920;2023-06-22T08:06:54;96700.47;;;16.21;100.00
60874;BME280;46715;40.642;-7.920;2023-06-22T08:08:55;96699.03;;;16.14;100.00
60874;BME280;46715;40.642;-7.920;2023-06-22T08:10:57;96698.91;;;16.33;100.00
60874;BME280;46715;40.642;-7.920;2023-06-22T08:12:58;96702.03;;;16.35;100.00
60874;BME280;46715;40.642;-7.920;2023-06-22T08:14:59;96702.50;;;16.38;100.00
60874;BME280;46715;40.642;-7.920;2023-06-22T08:17:00;96709.06;;;16.26;100.00
60874;BME280;46715;40.642;-7.920;2023-06-22T08:19:01;96704.56;;;16.41;100.00
60874;BME280;46715;40.642;-7.920;2023-06-22T08:21:02;96707.59;;;16.34;100.00
60874;BME280;46715;40.642;-7.920;2023-06-22T08:23:03;96705.44;;;16.36;100.00
60874;BME280;46715;40.642;-7.920;2023-06-22T08:25:07;96702.88;;;16.59;100.00
60874;BME280;46715;40.642;-7.920;2023-06-22T08:27:09;96716.31;;;16.71;100.00
60874;BME280;46715;40.642;-7.920;2023-06-22T08:29:12;96714.38;;;16.77;100.00
60874;BME280;46715;40.642;-7.920;2023-06-22T08:31:13;96709.19;;;16.85;100.00
60874;BME280;46715;40.642;-7.920;2023-06-22T08:33:14;96714.56;;;16.94;100.00
60874;BME280;46715;40.642;-7.920;2023-06-22T08:35:15;96710.19;;;16.90;100.00
60874;BME280;46715;40.642;-7.920;2023-06-22T08:37:16;96716.84;;;16.59;100.00
60874;BME280;46715;40.642;-7.920;2023-06-22T08:39:17;96728.16;;;16.60;100.00
60874;BME280;46715;40.642;-7.920;2023-06-22T08:41:18;96723.09;;;16.63;100.00
60874;BME280;46715;40.642;-7.920;2023-06-22T08:43:18;96722.13;;;17.10;100.00
60874;BME280;46715;40.642;-7.920;2023-06-22T08:45:19;96714.31;;;17.41;100.00
60874;BME280;46715;40.642;-7.920;2023-06-22T08:47:20;96717.59;;;17.69;100.00
60874;BME280;46715;40.642;-7.920;2023-06-22T08:49:21;96711.91;;;17.76;100.00
60874;BME280;46715;40.642;-7.920;2023-06-22T08:51:23;96721.38;;;17.54;100.00
60874;BME280;46715;40.642;-7.920;2023-06-22T08:53:25;96714.84;;;17.75;100.00
60874;BME280;46715;40.642;-7.920;2023-06-22T08:55:26;96717.56;;;18.23;100.00
60874;BME280;46715;40.642;-7.920;2023-06-22T08:57:27;96719.53;;;18.58;99.94
60874;BME280;46715;40.642;-7.920;2023-06-22T08:59:28;96722.44;;;18.97;96.89
60874;BME280;46715;40.642;-7.920;2023-06-22T09:01:29;96720.44;;;19.29;94.39
60874;BME280;46715;40.642;-7.920;2023-06-22T09:03:29;96725.53;;;19.60;92.99
60874;BME280;46715;40.642;-7.920;2023-06-22T09:05:30;96725.09;;;20.14;91.34
60874;BME280;46715;40.642;-7.920;2023-06-22T09:07:31;96720.47;;;20.41;87.89
60874;BME280;46715;40.642;-7.920;2023-06-22T09:09:32;96723.47;;;20.69;86.34
60874;BME280;46715;40.642;-7.920;2023-06-22T09:11:34;96718.75;;;21.38;81.45
60874;BME280;46715;40.642;-7.920;2023-06-22T09:13:34;96725.41;;;21.66;79.03
60874;BME280;46715;40.642;-7.920;2023-06-22T09:15:35;96727.13;;;21.95;78.41
60874;BME280;46715;40.642;-7.920;2023-06-22T09:17:37;96722.78;;;21.90;77.80
60874;BME280;46715;40.642;-7.920;2023-06-22T09:19:38;96722.94;;;22.06;75.05
60874;BME280;46715;40.642;-7.920;2023-06-22T09:21:45;96716.66;;;22.23;73.91
60874;BME280;46715;40.642;-7.920;2023-06-22T09:23:46;96717.00;;;22.46;73.22
60874;BME280;46715;40.642;-7.920;2023-06-22T09:25:51;96723.63;;;22.65;73.48
60874;BME280;46715;40.642;-7.920;2023-06-22T09:27:52;96724.00;;;23.04;72.11
60874;BME280;46715;40.642;-7.920;2023-06-22T09:29:52;96726.97;;;23.27;69.74
60874;BME280;46715;40.642;-7.920;2023-06-22T09:31:53;96728.50;;;23.28;69.20
60874;BME280;46715;40.642;-7.920;2023-06-22T09:33:56;96728.19;;;23.30;70.34
60874;BME280;46715;40.642;-7.920;2023-06-22T09:35:57;96726.78;;;23.08;69.96
60874;BME280;46715;40.642;-7.920;2023-06-22T09:37:57;96729.31;;;23.17;70.30
60874;BME280;46715;40.642;-7.920;2023-06-22T09:39:58;96726.00;;;24.08;67.51
60874;BME280;46715;40.642;-7.920;2023-06-22T09:41:59;96709.97;;;25.47;61.68
60874;BME280;46715;40.642;-7.920;2023-06-22T09:44:00;96707.41;;;26.74;57.35
60874;BME280;46715;40.642;-7.920;2023-06-22T09:46:01;96709.47;;;27.14;55.11
60874;BME280;46715;40.642;-7.920;2023-06-22T09:48:02;96706.28;;;27.69;51.09
60874;BME280;46715;40.642;-7.920;2023-06-22T09:50:03;96710.41;;;27.63;51.55
60874;BME280;46715;40.642;-7.920;2023-06-22T09:52:05;96705.28;;;28.37;49.89
60874;BME280;46715;40.642;-7.920;2023-06-22T09:54:05;96713.09;;;28.60;49.80
60874;BME280;46715;40.642;-7.920;2023-06-22T09:56:06;96710.63;;;28.96;48.06
60874;BME280;46715;40.642;-7.920;2023-06-22T09:58:07;96703.56;;;28.63;47.87
60874;BME280;46715;40.642;-7.920;2023-06-22T10:00:09;96712.50;;;28.88;49.09
60874;BME280;46715;40.642;-7.920;2023-06-22T10:02:13;96709.06;;;28.91;48.40
60874;BME280;46715;40.642;-7.920;2023-06-22T10:04:14;96709.75;;;28.78;48.14
60874;BME280;46715;40.642;-7.920;2023-06-22T10:06:14;96712.94;;;28.35;49.63
60874;BME280;46715;40.642;-7.920;2023-06-22T10:08:15;96715.78;;;29.27;48.31
60874;BME280;46715;40.642;-7.920;2023-06-22T10:10:17;96712.75;;;29.53;46.45
60874;BME280;46715;40.642;-7.920;2023-06-22T10:12:18;96725.44;;;29.56;48.34
60874;BME280;46715;40.642;-7.920;2023-06-22T10:14:19;96723.22;;;30.05;46.68
60874;BME280;46715;40.642;-7.920;2023-06-22T10:16:19;96723.22;;;30.13;46.18
60874;BME280;46715;40.642;-7.920;2023-06-22T10:18:21;96718.97;;;30.40;46.78
60874;BME280;46715;40.642;-7.920;2023-06-22T10:20:21;96720.88;;;30.69;45.56
60874;BME280;46715;40.642;-7.920;2023-06-22T10:22:22;96716.63;;;30.68;44.61
60874;BME280;46715;40.642;-7.920;2023-06-22T10:24:23;96713.09;;;29.37;45.31
60874;BME280;46715;40.642;-7.920;2023-06-22T10:26:23;96716.63;;;29.63;46.19
60874;BME280;46715;40.642;-7.920;2023-06-22T10:28:24;96717.06;;;29.83;46.11
60874;BME280;46715;40.642;-7.920;2023-06-22T10:30:25;96720.91;;;30.25;43.81
60874;BME280;46715;40.642;-7.920;2023-06-22T10:32:26;96720.91;;;30.65;44.24
60874;BME280;46715;40.642;-7.920;2023-06-22T10:34:28;96718.41;;;31.18;43.21